createdAt,value
2018-12-16T00:00:57.424Z,1007.62
2018-12-16T00:01:57.414Z,1007.65
2018-12-16T00:02:57.398Z,1007.65
2018-12-16T00:03:57.381Z,1007.69
2018-12-16T00:04:57.370Z,1007.73
2018-12-16T00:05:57.350Z,1007.75
2018-12-16T00:06:57.340Z,1007.74
2018-12-16T00:07:57.324Z,1007.69
2018-12-16T00:08:57.308Z,1007.66
2018-12-16T00:09:57.299Z,1007.66
2018-12-16T00:10:57.276Z,1007.63
2018-12-16T00:11:57.261Z,1007.53
2018-12-16T00:12:57.351Z,1007.49
2018-12-16T00:13:58.238Z,1007.49
2018-12-16T00:15:00.829Z,1007.49
2018-12-16T00:15:57.206Z,1007.51
2018-12-16T00:16:57.189Z,1007.47
2018-12-16T00:17:57.179Z,1007.49
2018-12-16T00:18:57.166Z,1007.44
2018-12-16T00:19:57.159Z,1007.47
2018-12-16T00:20:57.139Z,1007.45
2018-12-16T00:21:57.125Z,1007.50
2018-12-16T00:22:57.111Z,1007.45
2018-12-16T00:23:58.831Z,1007.47
2018-12-16T00:24:57.079Z,1007.47
2018-12-16T00:25:57.066Z,1007.45
2018-12-16T00:26:57.054Z,1007.48
2018-12-16T00:27:57.042Z,1007.45
2018-12-16T00:28:57.026Z,1007.47
2018-12-16T00:29:57.010Z,1007.49
2018-12-16T00:30:56.990Z,1007.45
2018-12-16T00:31:56.985Z,1007.44
2018-12-16T00:32:56.961Z,1007.42
2018-12-16T00:33:56.951Z,1007.46
2018-12-16T00:34:56.933Z,1007.43
2018-12-16T00:35:56.924Z,1007.45
2018-12-16T00:36:56.922Z,1007.46
2018-12-16T00:37:56.898Z,1007.48
2018-12-16T00:38:56.874Z,1007.50
2018-12-16T00:39:56.868Z,1007.49
2018-12-16T00:40:56.852Z,1007.45
2018-12-16T00:41:56.839Z,1007.40
2018-12-16T00:42:56.822Z,1007.40
2018-12-16T00:43:56.814Z,1007.36
2018-12-16T00:44:56.795Z,1007.33
2018-12-16T00:45:56.782Z,1007.30
2018-12-16T00:46:56.770Z,1007.33
2018-12-16T00:47:56.752Z,1007.30
2018-12-16T00:48:56.744Z,1007.35
2018-12-16T00:49:56.727Z,1007.37
2018-12-16T00:50:56.709Z,1007.44
2018-12-16T00:51:56.696Z,1007.46
2018-12-16T00:52:56.688Z,1007.44
2018-12-16T00:53:56.673Z,1007.50
2018-12-16T00:54:56.652Z,1007.47
2018-12-16T00:55:56.636Z,1007.54
2018-12-16T00:56:56.626Z,1007.53
2018-12-16T00:57:56.613Z,1007.52
2018-12-16T00:58:56.598Z,1007.46
2018-12-16T00:59:56.590Z,1007.45
2018-12-16T01:00:56.570Z,1007.44
2018-12-16T01:01:56.559Z,1007.41
2018-12-16T01:02:56.542Z,1007.43
2018-12-16T01:03:56.527Z,1007.35
2018-12-16T01:04:56.515Z,1007.40
2018-12-16T01:05:56.502Z,1007.35
2018-12-16T01:06:56.487Z,1007.33
2018-12-16T01:07:56.474Z,1007.35
2018-12-16T01:08:56.454Z,1007.38
2018-12-16T01:09:56.444Z,1007.33
2018-12-16T01:10:56.455Z,1007.34
2018-12-16T01:11:56.412Z,1007.38
2018-12-16T01:12:56.402Z,1007.33
2018-12-16T01:13:56.385Z,1007.37
2018-12-16T01:14:56.371Z,1007.31
2018-12-16T01:15:56.359Z,1007.29
2018-12-16T01:16:56.349Z,1007.28
2018-12-16T01:17:56.332Z,1007.28
2018-12-16T01:18:56.320Z,1007.26
2018-12-16T01:19:56.305Z,1007.26
2018-12-16T01:20:56.290Z,1007.20
2018-12-16T01:21:56.282Z,1007.24
2018-12-16T01:22:56.269Z,1007.19
2018-12-16T01:23:56.248Z,1007.21
2018-12-16T01:24:56.239Z,1007.21
2018-12-16T01:25:56.219Z,1007.20
2018-12-16T01:26:56.206Z,1007.17
2018-12-16T01:27:56.192Z,1007.19
2018-12-16T01:28:56.180Z,1007.19
2018-12-16T01:29:56.166Z,1007.15
2018-12-16T01:30:56.152Z,1007.13
2018-12-16T01:31:56.138Z,1007.10
2018-12-16T01:32:56.126Z,1007.07
2018-12-16T01:33:56.113Z,1007.06
2018-12-16T01:34:56.096Z,1007.08
2018-12-16T01:35:56.079Z,1007.07
2018-12-16T01:36:56.065Z,1007.04
2018-12-16T01:37:56.053Z,1007.03
2018-12-16T01:38:56.037Z,1006.98
2018-12-16T01:39:56.025Z,1006.98
2018-12-16T01:40:56.010Z,1006.93
2018-12-16T01:41:55.995Z,1006.88
2018-12-16T01:42:55.980Z,1006.83
2018-12-16T01:43:55.972Z,1006.87
2018-12-16T01:44:55.954Z,1006.79
2018-12-16T01:45:55.941Z,1006.76
2018-12-16T01:46:55.929Z,1006.74
2018-12-16T01:47:55.912Z,1006.78
2018-12-16T01:48:55.903Z,1006.70
2018-12-16T01:49:55.887Z,1006.67
2018-12-16T01:50:55.872Z,1006.66
2018-12-16T01:51:55.855Z,1006.66
2018-12-16T01:52:55.847Z,1006.69
2018-12-16T01:53:55.836Z,1006.69
2018-12-16T01:54:55.815Z,1006.67
2018-12-16T01:55:55.796Z,1006.66
2018-12-16T01:56:55.790Z,1006.66
2018-12-16T01:57:55.772Z,1006.65
2018-12-16T01:58:55.759Z,1006.68
2018-12-16T01:59:55.744Z,1006.65
2018-12-16T02:00:55.731Z,1006.60
2018-12-16T02:01:55.722Z,1006.59
2018-12-16T02:02:55.703Z,1006.57
2018-12-16T02:03:55.690Z,1006.46
2018-12-16T02:04:55.677Z,1006.47
2018-12-16T02:05:55.660Z,1006.46
2018-12-16T02:06:55.648Z,1006.43
2018-12-16T02:07:55.634Z,1006.43
2018-12-16T02:08:55.623Z,1006.42
2018-12-16T02:09:55.603Z,1006.41
2018-12-16T02:10:55.599Z,1006.41
2018-12-16T02:11:55.580Z,1006.46
2018-12-16T02:12:55.563Z,1006.45
2018-12-16T02:13:55.549Z,1006.47
2018-12-16T02:14:55.574Z,1006.44
2018-12-16T02:15:55.526Z,1006.43
2018-12-16T02:16:55.514Z,1006.45
2018-12-16T02:17:55.490Z,1006.40
2018-12-16T02:18:55.483Z,1006.46
2018-12-16T02:19:55.471Z,1006.43
2018-12-16T02:20:55.454Z,1006.39
2018-12-16T02:21:55.437Z,1006.39
2018-12-16T02:22:56.997Z,1006.40
2018-12-16T02:23:55.411Z,1006.37
2018-12-16T02:24:55.400Z,1006.30
2018-12-16T02:25:55.388Z,1006.29
2018-12-16T02:26:55.368Z,1006.29
2018-12-16T02:27:55.355Z,1006.29
2018-12-16T02:28:55.343Z,1006.28
2018-12-16T02:29:55.327Z,1006.26
2018-12-16T02:30:55.311Z,1006.23
2018-12-16T02:31:55.301Z,1006.20
2018-12-16T02:32:55.285Z,1006.19
2018-12-16T02:33:55.279Z,1006.16
2018-12-16T02:34:55.260Z,1006.16
2018-12-16T02:35:55.241Z,1006.11
2018-12-16T02:36:55.238Z,1006.13
2018-12-16T02:37:55.220Z,1006.14
2018-12-16T02:38:55.245Z,1006.07
2018-12-16T02:39:55.188Z,1006.07
2018-12-16T02:40:55.179Z,1005.98
2018-12-16T02:41:55.173Z,1005.93
2018-12-16T02:42:55.147Z,1005.85
2018-12-16T02:43:55.134Z,1005.80
2018-12-16T02:44:55.124Z,1005.78
2018-12-16T02:45:55.108Z,1005.79
2018-12-16T02:46:55.099Z,1005.81
2018-12-16T02:47:55.084Z,1005.75
2018-12-16T02:48:55.062Z,1005.75
2018-12-16T02:49:55.058Z,1005.76
2018-12-16T02:50:55.045Z,1005.80
2018-12-16T02:51:55.024Z,1005.75
2018-12-16T02:52:55.011Z,1005.70
2018-12-16T02:53:55.000Z,1005.67
2018-12-16T02:54:54.986Z,1005.65
2018-12-16T02:55:54.975Z,1005.59
2018-12-16T02:56:54.962Z,1005.59
2018-12-16T02:57:54.946Z,1005.57
2018-12-16T02:58:54.930Z,1005.55
2018-12-16T02:59:54.916Z,1005.56
2018-12-16T03:00:54.910Z,1005.62
2018-12-16T03:01:54.892Z,1005.57
2018-12-16T03:02:54.893Z,1005.60
2018-12-16T03:03:54.879Z,1005.54
2018-12-16T03:04:54.848Z,1005.50
2018-12-16T03:05:54.845Z,1005.52
2018-12-16T03:06:54.823Z,1005.46
2018-12-16T03:07:54.806Z,1005.44
2018-12-16T03:08:54.796Z,1005.43
2018-12-16T03:09:54.779Z,1005.37
2018-12-16T03:10:54.762Z,1005.34
2018-12-16T03:11:54.757Z,1005.33
2018-12-16T03:12:54.742Z,1005.34
2018-12-16T03:13:54.730Z,1005.32
2018-12-16T03:14:54.709Z,1005.26
2018-12-16T03:15:54.696Z,1005.24
2018-12-16T03:16:54.690Z,1005.22
2018-12-16T03:17:54.673Z,1005.19
2018-12-16T03:18:54.792Z,1005.09
2018-12-16T03:19:54.646Z,1005.03
2018-12-16T03:20:54.628Z,1005.01
2018-12-16T03:21:54.620Z,1004.94
2018-12-16T03:22:54.602Z,1004.94
2018-12-16T03:23:54.587Z,1004.95
2018-12-16T03:24:54.584Z,1004.94
2018-12-16T03:25:54.565Z,1004.92
2018-12-16T03:26:54.549Z,1004.90
2018-12-16T03:27:54.542Z,1004.87
2018-12-16T03:28:54.522Z,1004.90
2018-12-16T03:29:54.507Z,1004.84
2018-12-16T03:30:54.515Z,1004.81
2018-12-16T03:31:54.482Z,1004.84
2018-12-16T03:32:54.511Z,1004.79
2018-12-16T03:33:54.452Z,1004.79
2018-12-16T03:34:54.445Z,1004.84
2018-12-16T03:35:54.424Z,1004.82
2018-12-16T03:36:54.414Z,1004.86
2018-12-16T03:37:54.402Z,1004.88
2018-12-16T03:38:54.379Z,1004.84
2018-12-16T03:39:54.372Z,1004.82
2018-12-16T03:40:54.354Z,1004.80
2018-12-16T03:41:54.351Z,1004.76
2018-12-16T03:42:54.331Z,1004.71
2018-12-16T03:43:54.319Z,1004.74
2018-12-16T03:44:54.304Z,1004.69
2018-12-16T03:45:54.290Z,1004.66
2018-12-16T03:46:54.278Z,1004.63
2018-12-16T03:47:54.263Z,1004.66
2018-12-16T03:48:54.251Z,1004.63
2018-12-16T03:49:54.232Z,1004.58
2018-12-16T03:50:54.223Z,1004.56
2018-12-16T03:51:54.202Z,1004.59
2018-12-16T03:52:54.197Z,1004.62
2018-12-16T03:53:54.178Z,1004.63
2018-12-16T03:54:54.166Z,1004.59
2018-12-16T03:55:55.865Z,1004.60
2018-12-16T03:56:54.133Z,1004.61
2018-12-16T03:57:54.125Z,1004.60
2018-12-16T03:58:54.118Z,1004.60
2018-12-16T03:59:54.122Z,1004.57
2018-12-16T04:00:54.084Z,1004.54
2018-12-16T04:01:54.070Z,1004.53
2018-12-16T04:02:54.060Z,1004.52
2018-12-16T04:03:54.047Z,1004.47
2018-12-16T04:04:54.035Z,1004.43
2018-12-16T04:05:54.020Z,1004.43
2018-12-16T04:06:54.004Z,1004.40
2018-12-16T04:07:53.990Z,1004.41
2018-12-16T04:08:53.980Z,1004.41
2018-12-16T04:09:53.963Z,1004.38
2018-12-16T04:10:53.947Z,1004.35
2018-12-16T04:11:53.946Z,1004.35
2018-12-16T04:12:53.925Z,1004.31
2018-12-16T04:13:53.906Z,1004.27
2018-12-16T04:14:53.899Z,1004.29
2018-12-16T04:15:53.884Z,1004.30
2018-12-16T04:16:53.866Z,1004.27
2018-12-16T04:17:53.864Z,1004.27
2018-12-16T04:18:53.841Z,1004.26
2018-12-16T04:19:53.828Z,1004.28
2018-12-16T04:20:53.812Z,1004.27
2018-12-16T04:21:53.800Z,1004.24
2018-12-16T04:22:53.787Z,1004.23
2018-12-16T04:23:53.769Z,1004.29
2018-12-16T04:24:53.766Z,1004.35
2018-12-16T04:25:53.745Z,1004.32
2018-12-16T04:26:53.728Z,1004.35
2018-12-16T04:27:53.719Z,1004.34
2018-12-16T04:28:53.703Z,1004.31
2018-12-16T04:29:53.690Z,1004.33
2018-12-16T04:30:53.678Z,1004.31
2018-12-16T04:31:53.673Z,1004.36
2018-12-16T04:32:53.647Z,1004.34
2018-12-16T04:33:53.652Z,1004.35
2018-12-16T04:34:53.625Z,1004.39
2018-12-16T04:35:53.613Z,1004.37
2018-12-16T04:36:53.595Z,1004.39
2018-12-16T04:37:53.591Z,1004.37
2018-12-16T04:38:53.566Z,1004.38
2018-12-16T04:39:53.557Z,1004.42
2018-12-16T04:40:53.548Z,1004.32
2018-12-16T04:41:53.532Z,1004.34
2018-12-16T04:42:53.521Z,1004.32
2018-12-16T04:43:53.506Z,1004.31
2018-12-16T04:44:53.490Z,1004.35
2018-12-16T04:45:53.482Z,1004.32
2018-12-16T04:46:53.465Z,1004.34
2018-12-16T04:47:53.451Z,1004.29
2018-12-16T04:48:53.437Z,1004.25
2018-12-16T04:49:53.425Z,1004.25
2018-12-16T04:50:55.368Z,1004.27
2018-12-16T04:51:53.401Z,1004.20
2018-12-16T04:52:53.383Z,1004.21
2018-12-16T04:53:53.376Z,1004.18
2018-12-16T04:54:53.360Z,1004.15
2018-12-16T04:55:53.348Z,1004.19
2018-12-16T04:56:53.333Z,1004.18
2018-12-16T04:57:53.316Z,1004.17
2018-12-16T04:58:53.302Z,1004.19
2018-12-16T04:59:53.296Z,1004.22
2018-12-16T05:00:53.285Z,1004.14
2018-12-16T05:01:53.267Z,1004.21
2018-12-16T05:02:53.250Z,1004.17
2018-12-16T05:03:53.240Z,1004.20
2018-12-16T05:04:53.227Z,1004.17
2018-12-16T05:05:53.211Z,1004.21
2018-12-16T05:06:53.195Z,1004.17
2018-12-16T05:07:53.188Z,1004.21
2018-12-16T05:08:53.172Z,1004.24
2018-12-16T05:09:53.160Z,1004.23
2018-12-16T05:10:53.150Z,1004.21
2018-12-16T05:11:53.138Z,1004.21
2018-12-16T05:12:53.122Z,1004.20
2018-12-16T05:13:53.108Z,1004.17
2018-12-16T05:14:53.096Z,1004.16
2018-12-16T05:15:53.077Z,1004.14
2018-12-16T05:16:53.078Z,1004.12
2018-12-16T05:17:53.055Z,1004.07
2018-12-16T05:18:53.042Z,1004.10
2018-12-16T05:19:53.023Z,1004.06
2018-12-16T05:20:53.017Z,1004.06
2018-12-16T05:21:53.001Z,1004.07
2018-12-16T05:22:52.987Z,1004.03
2018-12-16T05:23:52.977Z,1004.00
2018-12-16T05:24:52.962Z,1003.99
2018-12-16T05:25:52.952Z,1004.00
2018-12-16T05:26:52.934Z,1003.99
2018-12-16T05:27:54.880Z,1003.96
2018-12-16T05:28:52.905Z,1003.98
2018-12-16T05:29:52.894Z,1003.99
2018-12-16T05:30:52.880Z,1004.01
2018-12-16T05:31:52.868Z,1004.01
2018-12-16T05:32:52.860Z,1004.01
2018-12-16T05:33:52.850Z,1004.03
2018-12-16T05:34:52.831Z,1003.99
2018-12-16T05:35:52.819Z,1004.03
2018-12-16T05:36:52.805Z,1004.02
2018-12-16T05:37:52.790Z,1003.99
2018-12-16T05:38:52.777Z,1004.00
2018-12-16T05:39:52.763Z,1003.96
2018-12-16T05:40:52.755Z,1003.92
2018-12-16T05:41:52.734Z,1004.00
2018-12-16T05:42:52.722Z,1003.94
2018-12-16T05:43:52.711Z,1003.90
2018-12-16T05:44:52.693Z,1003.89
2018-12-16T05:45:52.684Z,1003.88
2018-12-16T05:46:52.669Z,1003.87
2018-12-16T05:47:52.659Z,1003.93
2018-12-16T05:48:52.639Z,1003.93
2018-12-16T05:49:52.631Z,1003.92
2018-12-16T05:50:52.617Z,1003.88
2018-12-16T05:51:52.620Z,1003.85
2018-12-16T05:52:54.381Z,1003.88
2018-12-16T05:53:52.579Z,1003.86
2018-12-16T05:54:52.560Z,1003.85
2018-12-16T05:55:52.553Z,1003.86
2018-12-16T05:56:52.536Z,1003.87
2018-12-16T05:57:52.526Z,1003.84
2018-12-16T05:58:52.511Z,1003.84
2018-12-16T05:59:52.497Z,1003.82
2018-12-16T06:00:52.484Z,1003.83
2018-12-16T06:01:52.473Z,1003.84
2018-12-16T06:02:52.526Z,1003.83
2018-12-16T06:03:52.442Z,1003.80
2018-12-16T06:04:52.428Z,1003.78
2018-12-16T06:05:52.423Z,1003.79
2018-12-16T06:06:52.405Z,1003.83
2018-12-16T06:07:52.393Z,1003.81
2018-12-16T06:08:52.381Z,1003.80
2018-12-16T06:09:52.359Z,1003.80
2018-12-16T06:10:52.351Z,1003.81
2018-12-16T06:11:52.333Z,1003.85
2018-12-16T06:12:52.322Z,1003.91
2018-12-16T06:13:52.312Z,1003.88
2018-12-16T06:14:52.296Z,1003.94
2018-12-16T06:15:52.283Z,1003.93
2018-12-16T06:16:52.269Z,1003.99
2018-12-16T06:17:52.255Z,1003.96
2018-12-16T06:18:52.244Z,1003.98
2018-12-16T06:19:52.225Z,1003.95
2018-12-16T06:20:52.217Z,1003.99
2018-12-16T06:21:52.203Z,1004.00
2018-12-16T06:22:52.187Z,1003.97
2018-12-16T06:23:55.457Z,1003.94
2018-12-16T06:24:52.161Z,1003.94
2018-12-16T06:25:52.144Z,1003.87
2018-12-16T06:26:52.137Z,1003.82
2018-12-16T06:27:52.120Z,1003.77
2018-12-16T06:28:52.108Z,1003.80
2018-12-16T06:29:52.092Z,1003.78
2018-12-16T06:30:52.078Z,1003.80
2018-12-16T06:31:52.063Z,1003.83
2018-12-16T06:32:52.051Z,1003.87
2018-12-16T06:33:52.038Z,1003.84
2018-12-16T06:34:53.880Z,1003.83
2018-12-16T06:35:53.896Z,1003.81
2018-12-16T06:36:51.993Z,1003.87
2018-12-16T06:37:51.987Z,1003.90
2018-12-16T06:38:51.972Z,1003.87
2018-12-16T06:39:51.960Z,1003.89
2018-12-16T06:40:51.943Z,1003.85
2018-12-16T06:41:51.928Z,1003.88
2018-12-16T06:42:51.915Z,1003.88
2018-12-16T06:43:53.888Z,1003.82
2018-12-16T06:44:51.890Z,1003.81
2018-12-16T06:45:51.875Z,1003.82
2018-12-16T06:46:51.858Z,1003.91
2018-12-16T06:47:51.846Z,1003.84
2018-12-16T06:48:51.843Z,1003.87
2018-12-16T06:49:51.821Z,1003.89
2018-12-16T06:50:53.390Z,1003.87
2018-12-16T06:51:51.796Z,1003.86
2018-12-16T06:52:51.779Z,1003.85
2018-12-16T06:53:51.769Z,1003.81
2018-12-16T06:54:51.754Z,1003.85
2018-12-16T06:55:51.741Z,1003.87
2018-12-16T06:56:51.729Z,1003.83
2018-12-16T06:57:51.708Z,1003.81
2018-12-16T06:58:51.701Z,1003.81
2018-12-16T06:59:51.688Z,1003.83
2018-12-16T07:00:51.670Z,1003.84
2018-12-16T07:01:51.663Z,1003.88
2018-12-16T07:02:51.647Z,1003.86
2018-12-16T07:03:51.633Z,1003.87
2018-12-16T07:04:51.623Z,1003.86
2018-12-16T07:05:51.607Z,1003.88
2018-12-16T07:06:53.152Z,1003.84
2018-12-16T07:07:51.578Z,1003.85
2018-12-16T07:08:51.566Z,1003.86
2018-12-16T07:09:51.555Z,1003.90
2018-12-16T07:10:51.542Z,1003.89
2018-12-16T07:11:51.529Z,1003.88
2018-12-16T07:12:51.514Z,1003.88
2018-12-16T07:13:53.419Z,1003.88
2018-12-16T07:14:51.491Z,1003.89
2018-12-16T07:15:51.495Z,1003.93
2018-12-16T07:16:51.459Z,1003.90
2018-12-16T07:17:51.448Z,1003.95
2018-12-16T07:18:51.432Z,1003.99
2018-12-16T07:19:51.421Z,1003.97
2018-12-16T07:20:51.403Z,1004.04
2018-12-16T07:21:51.389Z,1004.02
2018-12-16T07:22:51.379Z,1004.03
2018-12-16T07:23:51.372Z,1004.02
2018-12-16T07:24:51.355Z,1004.03
2018-12-16T07:25:51.345Z,1004.04
2018-12-16T07:26:51.363Z,1004.04
2018-12-16T07:27:51.315Z,1004.04
2018-12-16T07:28:51.296Z,1004.02
2018-12-16T07:29:51.286Z,1003.99
2018-12-16T07:30:51.273Z,1004.01
2018-12-16T07:31:51.259Z,1004.00
2018-12-16T07:32:51.252Z,1003.98
2018-12-16T07:33:51.237Z,1003.96
2018-12-16T07:34:51.235Z,1004.01
2018-12-16T07:35:51.206Z,1004.02
2018-12-16T07:36:51.191Z,1004.02
2018-12-16T07:37:51.180Z,1004.04
2018-12-16T07:38:51.172Z,1004.02
2018-12-16T07:39:51.153Z,1004.03
2018-12-16T07:40:51.495Z,1003.99
2018-12-16T07:41:51.129Z,1004.01
2018-12-16T07:42:51.123Z,1004.02
2018-12-16T07:43:51.102Z,1003.99
2018-12-16T07:44:51.084Z,1003.96
2018-12-16T07:45:51.070Z,1003.93
2018-12-16T07:46:51.096Z,1003.93
2018-12-16T07:47:51.060Z,1003.95
2018-12-16T07:48:51.036Z,1003.90
2018-12-16T07:49:51.025Z,1003.90
2018-12-16T07:50:51.001Z,1003.89
2018-12-16T07:51:50.994Z,1003.93
2018-12-16T07:52:50.995Z,1003.93
2018-12-16T07:53:50.974Z,1003.96
2018-12-16T07:54:50.955Z,1003.94
2018-12-16T07:55:50.934Z,1003.96
2018-12-16T07:56:50.930Z,1003.94
2018-12-16T07:57:50.911Z,1003.94
2018-12-16T07:58:50.899Z,1003.97
2018-12-16T07:59:50.883Z,1003.97
2018-12-16T08:00:50.870Z,1003.95
2018-12-16T08:01:50.944Z,1003.95
2018-12-16T08:02:50.869Z,1004.00
2018-12-16T08:03:50.837Z,1004.02
2018-12-16T08:04:50.855Z,1004.05
2018-12-16T08:05:50.802Z,1004.06
2018-12-16T08:06:50.792Z,1004.04
2018-12-16T08:07:50.781Z,1004.02
2018-12-16T08:08:50.766Z,1004.08
2018-12-16T08:09:50.752Z,1004.06
2018-12-16T08:10:50.738Z,1004.03
2018-12-16T08:11:50.729Z,1004.02
2018-12-16T08:12:50.713Z,1004.02
2018-12-16T08:13:50.698Z,1004.02
2018-12-16T08:14:50.682Z,1004.06
2018-12-16T08:15:50.667Z,1004.06
2018-12-16T08:16:50.659Z,1004.07
2018-12-16T08:17:50.647Z,1004.06
2018-12-16T08:18:50.635Z,1004.10
2018-12-16T08:19:50.617Z,1004.07
2018-12-16T08:20:50.604Z,1004.06
2018-12-16T08:21:50.591Z,1004.08
2018-12-16T08:22:50.575Z,1004.04
2018-12-16T08:23:50.565Z,1004.07
2018-12-16T08:24:50.547Z,1004.05
2018-12-16T08:25:50.537Z,1004.03
2018-12-16T08:26:50.526Z,1004.04
2018-12-16T08:27:50.509Z,1004.05
2018-12-16T08:28:50.498Z,1004.02
2018-12-16T08:29:50.484Z,1004.05
2018-12-16T08:30:50.472Z,1004.05
2018-12-16T08:31:50.458Z,1004.04
2018-12-16T08:32:50.446Z,1004.04
2018-12-16T08:33:50.435Z,1004.02
2018-12-16T08:34:50.418Z,1004.01
2018-12-16T08:35:50.408Z,1004.03
2018-12-16T08:36:50.457Z,1004.04
2018-12-16T08:37:50.380Z,1004.00
2018-12-16T08:38:50.364Z,1004.01
2018-12-16T08:39:50.350Z,1003.98
2018-12-16T08:40:50.337Z,1003.99
2018-12-16T08:41:50.323Z,1004.02
2018-12-16T08:42:50.309Z,1003.99
2018-12-16T08:43:50.295Z,1003.95
2018-12-16T08:44:50.285Z,1003.99
2018-12-16T08:45:50.273Z,1004.03
2018-12-16T08:46:50.253Z,1004.02
2018-12-16T08:47:50.250Z,1004.05
2018-12-16T08:48:50.233Z,1004.05
2018-12-16T08:49:50.245Z,1004.02
2018-12-16T08:50:50.209Z,1004.01
2018-12-16T08:51:50.191Z,1004.05
2018-12-16T08:52:50.180Z,1004.07
2018-12-16T08:53:50.166Z,1004.06
2018-12-16T08:54:50.151Z,1004.04
2018-12-16T08:55:50.140Z,1004.05
2018-12-16T08:56:50.125Z,1004.04
2018-12-16T08:57:51.910Z,1004.05
2018-12-16T08:58:50.100Z,1004.07
2018-12-16T08:59:50.086Z,1004.08
2018-12-16T09:00:50.070Z,1004.08
2018-12-16T09:01:50.060Z,1004.05
2018-12-16T09:02:50.046Z,1004.12
2018-12-16T09:03:50.027Z,1004.09
2018-12-16T09:04:50.018Z,1004.13
2018-12-16T09:05:50.010Z,1004.15
2018-12-16T09:06:49.997Z,1004.16
2018-12-16T09:07:49.984Z,1004.20
2018-12-16T09:08:49.965Z,1004.21
2018-12-16T09:09:49.952Z,1004.18
2018-12-16T09:10:49.938Z,1004.19
2018-12-16T09:11:49.922Z,1004.20
2018-12-16T09:12:49.913Z,1004.19
2018-12-16T09:13:49.902Z,1004.20
2018-12-16T09:14:49.886Z,1004.14
2018-12-16T09:15:49.871Z,1004.21
2018-12-16T09:16:49.861Z,1004.18
2018-12-16T09:17:49.853Z,1004.25
2018-12-16T09:18:49.835Z,1004.22
2018-12-16T09:19:49.820Z,1004.23
2018-12-16T09:20:49.809Z,1004.22
2018-12-16T09:21:49.802Z,1004.24
2018-12-16T09:22:49.783Z,1004.22
2018-12-16T09:23:49.773Z,1004.24
2018-12-16T09:24:49.759Z,1004.24
2018-12-16T09:25:49.738Z,1004.25
2018-12-16T09:26:49.732Z,1004.25
2018-12-16T09:27:49.722Z,1004.25
2018-12-16T09:28:49.700Z,1004.28
2018-12-16T09:29:49.701Z,1004.23
2018-12-16T09:30:49.678Z,1004.23
2018-12-16T09:31:49.666Z,1004.23
2018-12-16T09:32:49.655Z,1004.20
2018-12-16T09:33:49.635Z,1004.17
2018-12-16T09:34:49.627Z,1004.21
2018-12-16T09:35:49.611Z,1004.22
2018-12-16T09:36:49.623Z,1004.23
2018-12-16T09:37:51.402Z,1004.24
2018-12-16T09:38:49.574Z,1004.25
2018-12-16T09:39:49.566Z,1004.27
2018-12-16T09:40:49.551Z,1004.27
2018-12-16T09:41:49.533Z,1004.25
2018-12-16T09:42:49.519Z,1004.30
2018-12-16T09:43:49.509Z,1004.23
2018-12-16T09:44:49.496Z,1004.23
2018-12-16T09:45:49.673Z,1004.21
2018-12-16T09:46:49.473Z,1004.20
2018-12-16T09:47:51.417Z,1004.20
2018-12-16T09:48:49.449Z,1004.23
2018-12-16T09:49:49.432Z,1004.23
2018-12-16T09:50:49.422Z,1004.25
2018-12-16T09:51:49.744Z,1004.24
2018-12-16T09:52:49.421Z,1004.20
2018-12-16T09:53:49.383Z,1004.21
2018-12-16T09:54:49.366Z,1004.23
2018-12-16T09:55:49.355Z,1004.19
2018-12-16T09:56:49.343Z,1004.21
2018-12-16T09:57:49.368Z,1004.15
2018-12-16T09:58:49.311Z,1004.23
2018-12-16T09:59:49.296Z,1004.18
2018-12-16T10:00:49.288Z,1004.20
2018-12-16T10:01:49.276Z,1004.21
2018-12-16T10:02:49.266Z,1004.25
2018-12-16T10:03:49.259Z,1004.22
2018-12-16T10:04:49.233Z,1004.25
2018-12-16T10:05:49.230Z,1004.18
2018-12-16T10:06:49.208Z,1004.16
2018-12-16T10:07:49.209Z,1004.17
2018-12-16T10:08:49.191Z,1004.18
2018-12-16T10:09:49.186Z,1004.17
2018-12-16T10:10:49.181Z,1004.15
2018-12-16T10:11:50.912Z,1004.12
2018-12-16T10:12:49.133Z,1004.14
2018-12-16T10:13:49.125Z,1004.09
2018-12-16T10:14:49.109Z,1004.15
2018-12-16T10:15:49.101Z,1004.15
2018-12-16T10:16:49.091Z,1004.13
2018-12-16T10:17:49.072Z,1004.13
2018-12-16T10:18:49.058Z,1004.10
2018-12-16T10:19:49.048Z,1004.09
2018-12-16T10:20:49.036Z,1004.05
2018-12-16T10:21:49.025Z,1004.03
2018-12-16T10:22:49.008Z,1004.05
2018-12-16T10:23:48.999Z,1004.00
2018-12-16T10:24:51.480Z,1004.01
2018-12-16T10:25:48.971Z,1003.99
2018-12-16T10:26:48.963Z,1003.97
2018-12-16T10:27:48.946Z,1004.02
2018-12-16T10:28:48.933Z,1003.99
2018-12-16T10:29:48.926Z,1004.05
2018-12-16T10:30:48.911Z,1004.05
2018-12-16T10:31:48.900Z,1004.03
2018-12-16T10:32:48.882Z,1003.99
2018-12-16T10:33:48.875Z,1004.01
2018-12-16T10:34:48.855Z,1003.98
2018-12-16T10:35:48.847Z,1003.96
2018-12-16T10:36:48.837Z,1003.98
2018-12-16T10:37:48.819Z,1003.99
2018-12-16T10:38:48.808Z,1004.00
2018-12-16T10:39:48.798Z,1003.98
2018-12-16T10:40:48.781Z,1003.96
2018-12-16T10:41:48.767Z,1004.00
2018-12-16T10:42:48.759Z,1003.99
2018-12-16T10:43:48.746Z,1003.97
2018-12-16T10:44:48.733Z,1003.95
2018-12-16T10:45:48.721Z,1003.93
2018-12-16T10:46:48.708Z,1003.94
2018-12-16T10:47:48.698Z,1003.97
2018-12-16T10:48:48.687Z,1003.96
2018-12-16T10:49:48.669Z,1003.96
2018-12-16T10:50:48.657Z,1003.94
2018-12-16T10:51:48.645Z,1003.92
2018-12-16T10:52:48.636Z,1003.84
2018-12-16T10:53:48.621Z,1003.85
2018-12-16T10:54:48.605Z,1003.88
2018-12-16T10:55:48.591Z,1003.82
2018-12-16T10:56:48.584Z,1003.83
2018-12-16T10:57:48.574Z,1003.82
2018-12-16T10:58:48.566Z,1003.83
2018-12-16T10:59:48.551Z,1003.83
2018-12-16T11:00:48.532Z,1003.82
2018-12-16T11:01:48.519Z,1003.81
2018-12-16T11:02:48.512Z,1003.84
2018-12-16T11:03:48.496Z,1003.84
2018-12-16T11:04:48.482Z,1003.84
2018-12-16T11:05:48.472Z,1003.85
2018-12-16T11:06:48.456Z,1003.80
2018-12-16T11:07:48.450Z,1003.84
2018-12-16T11:08:48.432Z,1003.82
2018-12-16T11:09:49.932Z,1003.79
2018-12-16T11:10:48.407Z,1003.81
2018-12-16T11:11:48.396Z,1003.83
2018-12-16T11:12:48.385Z,1003.83
2018-12-16T11:13:48.374Z,1003.80
2018-12-16T11:14:48.369Z,1003.80
2018-12-16T11:15:48.344Z,1003.79
2018-12-16T11:16:48.348Z,1003.78
2018-12-16T11:17:48.319Z,1003.74
2018-12-16T11:18:48.304Z,1003.77
2018-12-16T11:19:48.294Z,1003.78
2018-12-16T11:20:48.282Z,1003.77
2018-12-16T11:21:48.272Z,1003.75
2018-12-16T11:22:48.255Z,1003.79
2018-12-16T11:23:53.828Z,1003.73
2018-12-16T11:24:48.232Z,1003.75
2018-12-16T11:25:48.217Z,1003.75
2018-12-16T11:26:48.204Z,1003.75
2018-12-16T11:27:48.189Z,1003.73
2018-12-16T11:28:48.182Z,1003.72
2018-12-16T11:29:48.169Z,1003.69
2018-12-16T11:30:48.158Z,1003.69
2018-12-16T11:31:48.145Z,1003.65
2018-12-16T11:32:49.937Z,1003.65
2018-12-16T11:33:48.122Z,1003.66
2018-12-16T11:34:48.107Z,1003.62
2018-12-16T11:35:48.095Z,1003.61
2018-12-16T11:36:48.084Z,1003.58
2018-12-16T11:37:48.075Z,1003.58
2018-12-16T11:38:48.056Z,1003.59
2018-12-16T11:39:48.046Z,1003.64
2018-12-16T11:40:48.033Z,1003.59
2018-12-16T11:41:48.020Z,1003.57
2018-12-16T11:42:48.006Z,1003.59
2018-12-16T11:43:47.993Z,1003.59
2018-12-16T11:44:47.980Z,1003.62
2018-12-16T11:45:47.969Z,1003.59
2018-12-16T11:46:47.959Z,1003.61
2018-12-16T11:47:47.950Z,1003.59
2018-12-16T11:48:47.927Z,1003.59
2018-12-16T11:49:47.918Z,1003.59
2018-12-16T11:50:47.903Z,1003.57
2018-12-16T11:51:47.900Z,1003.56
2018-12-16T11:52:47.880Z,1003.55
2018-12-16T11:53:47.870Z,1003.52
2018-12-16T11:54:48.273Z,1003.55
2018-12-16T11:55:48.230Z,1003.57
2018-12-16T11:56:48.208Z,1003.56
2018-12-16T11:57:48.151Z,1003.59
2018-12-16T11:58:48.196Z,1003.57
2018-12-16T11:59:48.187Z,1003.57
2018-12-16T12:00:49.629Z,1003.54
2018-12-16T12:01:48.160Z,1003.51
2018-12-16T12:02:48.143Z,1003.52
2018-12-16T12:03:47.838Z,1003.57
2018-12-16T12:04:48.013Z,1003.59
2018-12-16T12:05:47.720Z,1003.56